Time;durP1;ratioP1;P1;durP2;ratioP2;P2;SDS_P1;SDS_P2;PMS_P1;PMS_P2;Temp;Humidity;BMP_temperature;BMP_pressure;BME280_temperature;BME280_humidity;BME280_pressure;Samples;Min_cycle;Max_cycle;Signal;HPM_P1;HPM_P2
2023/04/05 00:00:25;;;;;;;22.77;11.68;;;;;;;-139.84;100.00;61778.28;4987415;28;20117;-73
2023/04/05 00:02:51;;;;;;;18.48;10.95;;;;;;;-139.84;100.00;61778.28;4986665;28;20116;-73
2023/04/05 00:05:28;;;;;;;20.25;10.45;;;;;;;-139.84;100.00;61778.28;4985744;28;20394;-73
2023/04/05 00:07:54;;;;;;;21.40;10.73;;;;;;;-139.84;100.00;61778.28;4983309;28;20033;-73
2023/04/05 00:10:19;;;;;;;17.33;10.68;;;;;;;-139.84;100.00;61778.28;4987527;28;20030;-73
2023/04/05 00:12:44;;;;;;;21.45;10.68;;;;;;;-139.84;100.00;61778.28;4991030;28;20026;-72
2023/04/05 00:15:10;;;;;;;20.05;10.50;;;;;;;-139.84;100.00;61778.28;4986384;28;20030;-72
2023/04/05 00:17:36;;;;;;;19.92;10.63;;;;;;;-139.84;100.00;61778.28;4983480;28;20062;-72
2023/04/05 00:20:06;;;;;;;16.92;10.70;;;;;;;-139.84;100.00;61778.28;4988608;28;20075;-72
2023/04/05 00:22:34;;;;;;;17.35;10.60;;;;;;;-139.84;100.00;61778.28;4982064;28;20030;-73
2023/04/05 00:25:01;;;;;;;22.13;10.30;;;;;;;-139.84;100.00;61778.28;4988332;28;20026;-72
2023/04/05 00:27:26;;;;;;;21.77;11.97;;;;;;;-139.84;100.00;61778.28;4983181;28;20026;-73
2023/04/05 00:29:51;;;;;;;18.50;12.02;;;;;;;-139.84;100.00;61778.28;4985087;28;20354;-73
2023/04/05 00:32:17;;;;;;;19.02;11.48;;;;;;;-139.84;100.00;61778.28;4982202;28;20106;-72
2023/04/05 00:34:42;;;;;;;17.83;11.32;;;;;;;-139.84;100.00;61778.28;4987496;28;20030;-72
2023/04/05 00:37:07;;;;;;;22.77;11.63;;;;;;;-139.84;100.00;61778.28;4982446;28;20481;-72
2023/04/05 00:39:33;;;;;;;20.15;11.43;;;;;;;-139.84;100.00;61778.28;5001755;28;20077;-72
2023/04/05 00:42:01;;;;;;;23.05;11.30;;;;;;;-139.84;100.00;61778.28;4984251;28;20029;-72
2023/04/05 00:44:27;;;;;;;17.75;10.90;;;;;;;-139.84;100.00;61778.28;4985813;28;20026;-72
2023/04/05 00:46:53;;;;;;;16.45;11.63;;;;;;;-139.84;100.00;61778.28;4984998;28;20031;-72
2023/04/05 00:49:19;;;;;;;22.52;11.32;;;;;;;-139.84;100.00;61778.28;4986649;28;20030;-72
2023/04/05 00:51:45;;;;;;;22.92;11.60;;;;;;;-139.84;100.00;61778.28;4987351;28;20026;-72
2023/04/05 00:54:10;;;;;;;17.40;11.38;;;;;;;-139.84;100.00;61778.28;4983511;28;20039;-73
2023/04/05 00:56:36;;;;;;;18.52;11.45;;;;;;;-139.84;100.00;61778.28;4987796;28;20041;-72
2023/04/05 00:59:01;;;;;;;19.60;10.77;;;;;;;-139.84;100.00;61778.28;4984294;28;20461;-72
2023/04/05 01:01:28;;;;;;;19.38;11.32;;;;;;;-139.84;100.00;61778.28;4984058;28;20034;-72
2023/04/05 01:04:04;;;;;;;20.73;11.00;;;;;;;-139.84;100.00;61778.28;4988314;28;20462;-72
2023/04/05 01:06:42;;;;;;;19.95;11.32;;;;;;;-139.84;100.00;61778.28;4989209;28;20042;-72
2023/04/05 01:09:43;;;;;;;27.75;11.85;;;;;;;-139.84;100.00;61778.28;4987973;28;20042;-72
2023/04/05 01:12:14;;;;;;;18.95;11.90;;;;;;;-139.84;100.00;61778.28;4985587;28;20089;-72
2023/04/05 01:14:51;;;;;;;20.10;12.13;;;;;;;-139.84;100.00;61778.28;4981405;28;20046;-72
2023/04/05 01:17:27;;;;;;;20.42;12.68;;;;;;;-139.84;100.00;61778.28;4984418;28;20336;-72
2023/04/05 01:19:58;;;;;;;18.77;11.88;;;;;;;-139.84;100.00;61778.28;4985134;28;20030;-72
2023/04/05 01:22:51;;;;;;;22.90;12.45;;;;;;;-139.84;100.00;61778.28;4989194;28;20101;-72
2023/04/05 01:25:35;;;;;;;23.15;12.27;;;;;;;-139.84;100.00;61778.28;4983956;28;20635;-72
2023/04/05 01:28:13;;;;;;;24.90;12.57;;;;;;;-139.84;100.00;61778.28;4988853;28;20506;-72
2023/04/05 01:30:41;;;;;;;22.23;12.13;;;;;;;-139.84;100.00;61778.28;4983950;28;20501;-72
2023/04/05 01:33:34;;;;;;;23.50;12.80;;;;;;;-139.84;100.00;61778.28;4987589;28;20030;-72
2023/04/05 01:36:36;;;;;;;18.02;12.18;;;;;;;-139.84;100.00;61778.28;4986432;28;20038;-72
2023/04/05 01:39:04;;;;;;;23.17;12.85;;;;;;;-139.84;100.00;61778.28;4984488;28;20023;-73
2023/04/05 01:41:30;;;;;;;28.10;13.55;;;;;;;-139.84;100.00;61778.28;4989942;28;20037;-72
2023/04/05 01:43:55;;;;;;;25.73;13.23;;;;;;;-139.84;100.00;61778.28;4987770;28;20113;-72
2023/04/05 01:46:21;;;;;;;24.77;13.85;;;;;;;-139.84;100.00;61778.28;4988095;28;20061;-72
2023/04/05 01:48:46;;;;;;;30.10;13.70;;;;;;;-139.84;100.00;61778.28;4987671;28;20073;-72
2023/04/05 01:51:11;;;;;;;27.73;14.98;;;;;;;-139.84;100.00;61778.28;4981132;28;20034;-72
2023/04/05 01:53:37;;;;;;;27.67;14.98;;;;;;;-139.84;100.00;61778.28;4986529;28;20034;-72
2023/04/05 01:56:03;;;;;;;25.35;14.70;;;;;;;-139.84;100.00;61778.28;4983510;28;20030;-72
2023/04/05 01:58:28;;;;;;;28.55;15.60;;;;;;;-139.84;100.00;61778.28;4989486;28;20398;-72
2023/04/05 02:00:57;;;;;;;25.60;14.70;;;;;;;-139.84;100.00;61778.28;4988495;28;20113;-72
2023/04/05 02:03:23;;;;;;;25.15;15.05;;;;;;;-139.84;100.00;61778.28;4988596;28;20113;-73
2023/04/05 02:05:49;;;;;;;23.38;14.77;;;;;;;-139.84;100.00;61778.28;4983652;28;20557;-72
2023/04/05 02:08:14;;;;;;;23.88;15.07;;;;;;;-139.84;100.00;61778.28;4984075;28;20042;-72
2023/04/05 02:10:40;;;;;;;26.45;15.32;;;;;;;-139.84;100.00;61778.28;4985963;28;20049;-72
2023/04/05 02:13:06;;;;;;;23.48;13.98;;;;;;;-139.84;100.00;61778.28;4987171;28;20458;-73
2023/04/05 02:15:34;;;;;;;21.67;13.10;;;;;;;-139.84;100.00;61778.28;4983231;28;20065;-72
2023/04/05 02:18:02;;;;;;;22.15;14.52;;;;;;;-139.84;100.00;61778.28;4985771;28;20046;-72
2023/04/05 02:20:28;;;;;;;25.85;14.90;;;;;;;-139.84;100.00;61778.28;4988022;28;20438;-72
2023/04/05 02:22:54;;;;;;;27.85;15.40;;;;;;;-139.84;100.00;61778.28;4989388;28;20026;-72
2023/04/05 02:25:20;;;;;;;30.30;15.27;;;;;;;-139.84;100.00;61778.28;4984581;28;20029;-72
2023/04/05 02:27:45;;;;;;;24.13;14.68;;;;;;;-139.84;100.00;61778.28;5003383;28;20398;-72
2023/04/05 02:30:14;;;;;;;23.00;14.73;;;;;;;-139.84;100.00;61778.28;4985376;28;20034;-72
2023/04/05 02:32:46;;;;;;;28.65;13.63;;;;;;;-139.84;100.00;61778.28;4988063;28;20041;-72
2023/04/05 02:35:12;;;;;;;24.63;14.68;;;;;;;-139.84;100.00;61778.28;4988578;28;20034;-72
2023/04/05 02:37:37;;;;;;;23.13;13.55;;;;;;;-139.84;100.00;61778.28;4988682;28;20608;-72
2023/04/05 02:40:09;;;;;;;22.98;13.60;;;;;;;-139.84;100.00;61778.28;4986851;28;20474;-71
2023/04/05 02:42:35;;;;;;;18.85;13.35;;;;;;;-139.84;100.00;61778.28;5003653;28;20500;-72
2023/04/05 02:45:01;;;;;;;24.65;13.07;;;;;;;-139.84;100.00;61778.28;4990616;28;20038;-72
2023/04/05 02:47:26;;;;;;;26.40;14.65;;;;;;;-139.84;100.00;61778.28;4991101;28;20097;-72
2023/04/05 02:49:52;;;;;;;21.60;13.43;;;;;;;-139.84;100.00;61778.28;4991141;28;20034;-74
2023/04/05 02:52:17;;;;;;;23.58;14.15;;;;;;;-139.84;100.00;61778.28;5004065;28;20074;-73
2023/04/05 02:54:43;;;;;;;22.35;13.93;;;;;;;-139.84;100.00;61778.28;4988001;28;20049;-71
2023/04/05 02:57:10;;;;;;;24.02;13.88;;;;;;;-139.84;100.00;61778.28;4988867;28;20041;-71
2023/04/05 02:59:37;;;;;;;25.25;13.98;;;;;;;-139.84;100.00;61778.28;4993251;28;20032;-71
2023/04/05 03:02:02;;;;;;;;;;;;;;;-139.84;100.00;61778.28;5005132;28;20627;-71
2023/04/05 03:04:28;;;;;;;25.05;13.00;;;;;;;-139.84;100.00;61778.28;4990439;28;20005;-71
2023/04/05 03:06:56;;;;;;;24.20;14.75;;;;;;;-139.84;100.00;61778.28;4985943;28;20058;-72
2023/04/05 03:09:22;;;;;;;20.05;13.50;;;;;;;-139.84;100.00;61778.28;4990028;28;20536;-70
2023/04/05 03:11:47;;;;;;;22.50;15.20;;;;;;;-139.84;100.00;61778.28;4989689;28;20148;-72
2023/04/05 03:14:13;;;;;;;23.02;14.63;;;;;;;-139.84;100.00;61778.28;4989139;28;20763;-72
2023/04/05 03:16:38;;;;;;;25.52;14.77;;;;;;;-139.84;100.00;61778.28;4989165;28;20470;-72
2023/04/05 03:19:05;;;;;;;24.35;14.15;;;;;;;-139.84;100.00;61778.28;4990767;28;20038;-72
2023/04/05 03:21:32;;;;;;;24.00;14.88;;;;;;;-139.84;100.00;61778.28;4987206;28;20061;-72
2023/04/05 03:23:59;;;;;;;27.77;15.45;;;;;;;-139.84;100.00;61778.28;4989352;28;20034;-72
2023/04/05 03:26:24;;;;;;;27.52;14.65;;;;;;;-139.84;100.00;61778.28;4983533;28;20039;-73
2023/04/05 03:28:50;;;;;;;22.70;13.82;;;;;;;-139.84;100.00;61778.28;5004458;28;20074;-72
2023/04/05 03:31:16;;;;;;;24.52;14.90;;;;;;;-139.84;100.00;61778.28;4987394;28;20026;-72
2023/04/05 03:33:41;;;;;;;25.85;15.02;;;;;;;-139.84;100.00;61778.28;5000559;28;20032;-72
2023/04/05 03:36:07;;;;;;;22.13;15.13;;;;;;;-139.84;100.00;61778.28;4988411;28;20137;-72
2023/04/05 03:38:33;;;;;;;28.70;16.52;;;;;;;-139.84;100.00;61778.28;4989892;28;20145;-72
2023/04/05 03:40:59;;;;;;;21.45;14.60;;;;;;;-139.84;100.00;61778.28;4984371;28;20129;-71
2023/04/05 03:43:24;;;;;;;23.60;15.75;;;;;;;-139.84;100.00;61778.28;4988339;28;20386;-71
2023/04/05 03:45:50;;;;;;;21.48;14.77;;;;;;;-139.84;100.00;61778.28;4986876;28;20046;-72
2023/04/05 03:48:19;;;;;;;21.20;15.30;;;;;;;-139.84;100.00;61778.28;4989898;28;20497;-71
2023/04/05 03:50:46;;;;;;;24.05;14.80;;;;;;;-139.84;100.00;61778.28;4986213;28;20027;-72
2023/04/05 03:53:12;;;;;;;22.77;14.27;;;;;;;-139.84;100.00;61778.28;5001893;28;20034;-72
2023/04/05 03:55:38;;;;;;;25.75;15.18;;;;;;;-139.84;100.00;61778.28;4987333;28;20498;-71
2023/04/05 03:58:04;;;;;;;24.42;14.82;;;;;;;-139.84;100.00;61778.28;4990413;28;20121;-70
2023/04/05 04:00:30;;;;;;;22.65;15.30;;;;;;;-139.84;100.00;61778.28;4986408;28;20113;-71
2023/04/05 04:02:55;;;;;;;29.55;15.75;;;;;;;-139.84;100.00;61778.28;4991229;28;20035;-72
2023/04/05 04:05:20;;;;;;;30.63;17.00;;;;;;;-139.84;100.00;61778.28;4986416;28;20031;-72
2023/04/05 04:07:46;;;;;;;27.38;16.00;;;;;;;-139.84;100.00;61778.28;4987488;28;20053;-72
2023/04/05 04:10:19;;;;;;;24.08;14.10;;;;;;;-139.84;100.00;61778.28;4985045;28;20029;-72
2023/04/05 04:12:45;;;;;;;26.15;16.38;;;;;;;-139.84;100.00;61778.28;5006683;28;20042;-72
2023/04/05 04:15:11;;;;;;;25.58;16.10;;;;;;;-139.84;100.00;61778.28;4983187;28;20030;-72
2023/04/05 04:17:37;;;;;;;20.45;13.38;;;;;;;-139.84;100.00;61778.28;4984910;28;20502;-71
2023/04/05 04:20:09;;;;;;;19.40;12.25;;;;;;;-139.84;100.00;61778.28;4991632;28;20030;-72
2023/04/05 04:22:37;;;;;;;29.52;16.60;;;;;;;-139.84;100.00;61778.28;4984493;28;20018;-72
2023/04/05 04:25:11;;;;;;;26.23;16.50;;;;;;;-139.84;100.00;61778.28;4983267;28;20022;-72
2023/04/05 04:27:41;;;;;;;26.75;16.45;;;;;;;-139.84;100.00;61778.28;4987585;28;20030;-72
2023/04/05 04:30:09;;;;;;;31.80;18.08;;;;;;;-139.84;100.00;61778.28;4980150;28;20053;-72
2023/04/05 04:32:54;;;;;;;28.85;18.00;;;;;;;-139.84;100.00;61778.28;4987516;28;20038;-72
2023/04/05 04:35:24;;;;;;;27.10;16.95;;;;;;;-139.84;100.00;61778.28;4983385;28;20486;-72
2023/04/05 04:37:53;;;;;;;25.92;17.27;;;;;;;-139.84;100.00;61778.28;4984505;28;20493;-72
2023/04/05 04:40:20;;;;;;;30.33;18.58;;;;;;;-139.84;100.00;61778.28;4983081;28;20172;-72
2023/04/05 04:42:45;;;;;;;27.63;16.77;;;;;;;-139.84;100.00;61778.28;4986931;28;20098;-71
2023/04/05 04:45:20;;;;;;;26.10;16.33;;;;;;;-139.84;100.00;61778.28;4989482;28;20030;-71
2023/04/05 04:47:47;;;;;;;28.88;17.02;;;;;;;-139.84;100.00;61778.28;4988490;28;20037;-71
2023/04/05 04:50:14;;;;;;;27.33;16.58;;;;;;;-139.84;100.00;61778.28;4985717;28;20053;-72
2023/04/05 04:52:40;;;;;;;28.55;16.05;;;;;;;-139.84;100.00;61778.28;4981677;28;20056;-72
2023/04/05 04:55:07;;;;;;;27.90;16.98;;;;;;;-139.84;100.00;61778.28;4988159;28;20490;-71
2023/04/05 04:57:33;;;;;;;;;;;;;;;-139.84;100.00;61778.28;4998802;28;20030;-72
2023/04/05 04:59:58;;;;;;;32.45;16.30;;;;;;;-139.84;100.00;61778.28;4984428;28;19916;-71
2023/04/05 05:02:25;;;;;;;24.08;16.13;;;;;;;-139.84;100.00;61778.28;4984165;28;20021;-72
2023/04/05 05:04:50;;;;;;;28.20;15.90;;;;;;;-139.84;100.00;61778.28;4984727;28;20367;-71
2023/04/05 05:07:16;;;;;;;24.63;16.05;;;;;;;-139.84;100.00;61778.28;4982389;28;20049;-71
2023/04/05 05:09:42;;;;;;;25.73;16.08;;;;;;;-139.84;100.00;61778.28;4986700;28;20041;-72
2023/04/05 05:12:07;;;;;;;29.10;17.05;;;;;;;-139.84;100.00;61778.28;4987885;28;20116;-72
2023/04/05 05:14:33;;;;;;;28.45;17.60;;;;;;;-139.84;100.00;61778.28;4985137;28;20033;-70
2023/04/05 05:16:58;;;;;;;25.27;15.88;;;;;;;-139.84;100.00;61778.28;4987963;28;20054;-72
2023/04/05 05:19:24;;;;;;;31.40;15.93;;;;;;;-139.84;100.00;61778.28;4988317;28;20096;-72
2023/04/05 05:21:51;;;;;;;23.05;15.40;;;;;;;-139.84;100.00;61778.28;4987921;28;20165;-72
2023/04/05 05:24:17;;;;;;;24.85;16.25;;;;;;;-139.84;100.00;61778.28;4988851;28;20022;-72
2023/04/05 05:26:42;;;;;;;23.08;15.23;;;;;;;-139.84;100.00;61778.28;4986221;28;20026;-72
2023/04/05 05:29:08;;;;;;;25.88;16.23;;;;;;;-139.84;100.00;61778.28;4984588;28;20027;-71
2023/04/05 05:31:33;;;;;;;29.08;16.60;;;;;;;-139.84;100.00;61778.28;4985458;28;20037;-72
2023/04/05 05:33:59;;;;;;;24.15;16.35;;;;;;;-139.84;100.00;61778.28;4989645;28;20033;-72
2023/04/05 05:36:24;;;;;;;30.42;16.83;;;;;;;-139.84;100.00;61778.28;4988672;28;20026;-71
2023/04/05 05:38:51;;;;;;;25.75;16.38;;;;;;;-139.84;100.00;61778.28;4984481;28;20498;-72
2023/04/05 05:41:16;;;;;;;33.35;15.45;;;;;;;-139.84;100.00;61778.28;4985144;28;20077;-72
2023/04/05 05:43:42;;;;;;;24.80;16.27;;;;;;;-139.84;100.00;61778.28;4986985;28;20030;-72
2023/04/05 05:46:08;;;;;;;24.58;15.90;;;;;;;-139.84;100.00;61778.28;4987348;28;20092;-71
2023/04/05 05:48:33;;;;;;;27.70;16.80;;;;;;;-139.84;100.00;61778.28;4988277;28;20501;-71
2023/04/05 05:51:00;;;;;;;23.92;16.88;;;;;;;-139.84;100.00;61778.28;5004413;28;20401;-71
2023/04/05 05:53:26;;;;;;;;;;;;;;;-139.84;100.00;61778.28;4987562;28;20030;-72
2023/04/05 05:55:51;;;;;;;30.33;16.23;;;;;;;-139.84;100.00;61778.28;4985654;28;20016;-72
2023/04/05 05:58:16;;;;;;;25.10;15.25;;;;;;;-139.84;100.00;61778.28;4983717;28;20069;-72
2023/04/05 06:00:42;;;;;;;28.55;15.63;;;;;;;-139.84;100.00;61778.28;4987449;28;20278;-71
2023/04/05 06:03:08;;;;;;;26.53;16.87;;;;;;;-139.84;100.00;61778.28;5004331;28;20477;-71
2023/04/05 06:05:34;;;;;;;31.30;16.35;;;;;;;-139.84;100.00;61778.28;4988033;28;20282;-71
2023/04/05 06:07:59;;;;;;;31.63;18.17;;;;;;;-139.84;100.00;61778.28;4988337;28;20030;-72
2023/04/05 06:10:25;;;;;;;32.63;18.10;;;;;;;-139.84;100.00;61778.28;4988398;28;20076;-71
2023/04/05 06:12:50;;;;;;;24.27;16.55;;;;;;;-139.84;100.00;61778.28;4990362;28;20034;-71
2023/04/05 06:15:16;;;;;;;41.20;17.73;;;;;;;-139.84;100.00;61778.28;4985587;28;20037;-70
2023/04/05 06:17:41;;;;;;;31.65;17.73;;;;;;;-139.84;100.00;61778.28;4989062;28;20498;-71
2023/04/05 06:20:10;;;;;;;33.78;18.35;;;;;;;-139.84;100.00;61778.28;4987463;28;20052;-72
2023/04/05 06:22:39;;;;;;;27.17;18.10;;;;;;;-139.84;100.00;61778.28;4989351;28;20363;-71
2023/04/05 06:25:05;;;;;;;27.02;17.38;;;;;;;-139.84;100.00;61778.28;4990240;28;20378;-71
2023/04/05 06:27:30;;;;;;;25.95;16.88;;;;;;;-139.84;100.00;61778.28;4990002;28;20049;-71
2023/04/05 06:29:58;;;;;;;33.10;18.75;;;;;;;-139.84;100.00;61778.28;4988168;28;20034;-71
2023/04/05 06:32:24;;;;;;;23.27;16.30;;;;;;;-139.84;100.00;61778.28;4990514;28;20076;-71
2023/04/05 06:34:49;;;;;;;34.50;17.27;;;;;;;-139.84;100.00;61778.28;4991867;28;20113;-71
2023/04/05 06:37:15;;;;;;;32.35;16.40;;;;;;;-139.84;100.00;61778.28;4985072;28;20034;-72
2023/04/05 06:39:40;;;;;;;24.35;17.17;;;;;;;-139.84;100.00;61778.28;4989495;28;20038;-71
2023/04/05 06:42:06;;;;;;;29.13;18.63;;;;;;;-139.84;100.00;61778.28;4989429;28;20041;-72
2023/04/05 06:44:31;;;;;;;26.52;15.45;;;;;;;-139.84;100.00;61778.28;4990888;28;20030;-71
2023/04/05 06:46:56;;;;;;;25.98;15.77;;;;;;;-139.84;100.00;61778.28;4987996;28;20121;-66
2023/04/05 06:49:22;;;;;;;33.47;15.15;;;;;;;-139.84;100.00;61778.28;4990193;28;20030;-66
2023/04/05 06:51:48;;;;;;;24.88;15.05;;;;;;;-139.84;100.00;61778.28;4987639;28;20540;-66
2023/04/05 06:54:14;;;;;;;28.48;15.32;;;;;;;-139.84;100.00;61778.28;5004713;28;20486;-66
2023/04/05 06:56:39;;;;;;;24.95;14.18;;;;;;;-139.84;100.00;61778.28;4989155;28;20113;-67
2023/04/05 06:59:05;;;;;;;21.13;14.27;;;;;;;-139.84;100.00;61778.28;4990477;28;20039;-66
2023/04/05 07:01:30;;;;;;;23.02;14.10;;;;;;;-139.84;100.00;61778.28;4989332;28;20066;-66
2023/04/05 07:03:56;;;;;;;21.05;14.00;;;;;;;-139.84;100.00;61778.28;4990600;28;20034;-66
2023/04/05 07:06:22;;;;;;;25.58;12.57;;;;;;;-139.84;100.00;61778.28;4986782;28;20113;-67
2023/04/05 07:08:48;;;;;;;17.83;12.90;;;;;;;-139.84;100.00;61778.28;4988115;28;20105;-66
2023/04/05 07:11:14;;;;;;;24.30;13.63;;;;;;;-139.84;100.00;61778.28;4988426;28;20101;-66
2023/04/05 07:13:40;;;;;;;21.80;13.38;;;;;;;-139.84;100.00;61778.28;4992270;28;20022;-67
2023/04/05 07:16:05;;;;;;;19.35;12.27;;;;;;;-139.84;100.00;61778.28;4986591;28;20041;-67
2023/04/05 07:18:31;;;;;;;19.70;10.80;;;;;;;-139.84;100.00;61778.28;4990027;28;20046;-67
2023/04/05 07:21:02;;;;;;;18.40;10.80;;;;;;;-139.84;100.00;61778.28;4987009;28;20066;-68
2023/04/05 07:23:29;;;;;;;17.80;11.55;;;;;;;-139.84;100.00;61778.28;4988192;28;20113;-67
2023/04/05 07:25:59;;;;;;;16.25;11.57;;;;;;;-139.84;100.00;61778.28;4985579;28;20030;-67
2023/04/05 07:28:25;;;;;;;18.85;10.85;;;;;;;-139.84;100.00;61778.28;4988638;28;20451;-68
2023/04/05 07:30:50;;;;;;;19.52;10.98;;;;;;;-139.84;100.00;61778.28;4991135;28;20080;-68
2023/04/05 07:33:16;;;;;;;15.70;10.38;;;;;;;-139.84;100.00;61778.28;4988969;28;20339;-68
2023/04/05 07:35:41;;;;;;;16.45;9.32;;;;;;;-139.84;100.00;61778.28;4987606;28;20030;-67
2023/04/05 07:38:08;;;;;;;19.30;10.00;;;;;;;-139.84;100.00;61778.28;4988475;28;20033;-68
2023/04/05 07:40:33;;;;;;;15.70;10.38;;;;;;;-139.84;100.00;61778.28;4989975;28;20022;-70
2023/04/05 07:42:59;;;;;;;13.90;10.07;;;;;;;-139.84;100.00;61778.28;5002088;28;20027;-67
2023/04/05 07:45:24;;;;;;;16.88;9.15;;;;;;;-139.84;100.00;61778.28;4985804;28;20136;-68
2023/04/05 07:47:50;;;;;;;14.65;9.57;;;;;;;-139.84;100.00;61778.28;4989305;28;20397;-68
2023/04/05 07:50:15;;;;;;;43.40;21.27;;;;;;;-139.84;100.00;61778.28;4991600;28;20037;-67
2023/04/05 07:52:41;;;;;;;15.10;9.57;;;;;;;-139.84;100.00;61778.28;4986947;28;20501;-68
2023/04/05 07:55:08;;;;;;;15.00;9.73;;;;;;;-139.84;100.00;61778.28;4988198;28;20343;-68
2023/04/05 07:57:34;;;;;;;13.30;9.05;;;;;;;-139.84;100.00;61778.28;4986356;28;20116;-67
2023/04/05 08:00:00;;;;;;;18.27;9.93;;;;;;;-139.84;100.00;61778.28;4984371;28;20030;-68
2023/04/05 08:02:25;;;;;;;19.83;8.90;;;;;;;-139.84;100.00;61778.28;4988799;28;20406;-68
2023/04/05 08:04:50;;;;;;;10.95;8.55;;;;;;;-139.84;100.00;61778.28;4991499;28;20041;-68
2023/04/05 08:07:16;;;;;;;14.40;8.90;;;;;;;-139.84;100.00;61778.28;5005529;28;20494;-68
2023/04/05 08:09:41;;;;;;;15.18;8.63;;;;;;;-139.84;100.00;61778.28;4987959;28;20077;-68
2023/04/05 08:12:07;;;;;;;14.43;9.38;;;;;;;-139.84;100.00;61778.28;4986499;28;20444;-68
2023/04/05 08:14:32;;;;;;;12.95;8.77;;;;;;;-139.84;100.00;61778.28;4988942;28;20061;-68
2023/04/05 08:16:58;;;;;;;15.63;8.68;;;;;;;-139.84;100.00;61778.28;4987941;28;20117;-68
2023/04/05 08:19:23;;;;;;;17.17;9.20;;;;;;;-139.84;100.00;61778.28;4989354;28;20040;-67
2023/04/05 08:21:48;;;;;;;14.27;9.88;;;;;;;-139.84;100.00;61778.28;4987967;28;20034;-66
2023/04/05 08:24:14;;;;;;;14.77;9.68;;;;;;;-139.84;100.00;61778.28;4989738;28;20390;-67
2023/04/05 08:26:40;;;;;;;16.20;9.15;;;;;;;-139.84;100.00;61778.28;4990226;28;20037;-67
2023/04/05 08:29:06;;;;;;;14.57;8.73;;;;;;;-139.84;100.00;61778.28;4999254;28;20291;-67
2023/04/05 08:31:32;;;;;;;13.90;8.18;;;;;;;-139.84;100.00;61778.28;4986295;28;20128;-67
2023/04/05 08:33:58;;;;;;;14.57;7.75;;;;;;;-139.84;100.00;61778.28;4986149;28;20057;-68
2023/04/05 08:36:23;;;;;;;18.83;7.72;;;;;;;-139.84;100.00;61778.28;4984154;28;20065;-67
2023/04/05 08:38:48;;;;;;;11.25;7.50;;;;;;;-139.84;100.00;61778.28;4989817;28;20054;-68
2023/04/05 08:41:17;;;;;;;13.77;7.57;;;;;;;-139.84;100.00;61778.28;4989236;28;20030;-67
2023/04/05 08:43:56;;;;;;;13.93;7.03;;;;;;;-139.84;100.00;61778.28;4986997;28;20438;-67
2023/04/05 08:46:23;;;;;;;11.55;6.60;;;;;;;-139.84;100.00;61778.28;4985076;28;20132;-69
2023/04/05 08:48:49;;;;;;;12.10;6.35;;;;;;;-139.84;100.00;61778.28;4988608;28;20030;-68
2023/04/05 08:51:21;;;;;;;10.52;6.32;;;;;;;-139.84;100.00;61778.28;4988794;28;20490;-68
2023/04/05 08:53:47;;;;;;;10.68;6.35;;;;;;;-139.84;100.00;61778.28;4987309;28;20501;-68
2023/04/05 08:56:29;;;;;;;10.20;6.97;;;;;;;-139.84;100.00;61778.28;4987706;28;20029;-68
2023/04/05 08:59:02;;;;;;;9.85;6.28;;;;;;;-139.84;100.00;61778.28;4998959;28;20030;-69
2023/04/05 09:01:29;;;;;;;10.23;5.85;;;;;;;-139.84;100.00;61778.28;4983968;28;20053;-69
2023/04/05 09:03:57;;;;;;;14.30;5.82;;;;;;;-139.84;100.00;61778.28;5000766;28;20084;-68
2023/04/05 09:06:22;;;;;;;10.80;5.30;;;;;;;-139.84;100.00;61778.28;4983960;28;20208;-69
2023/04/05 09:08:48;;;;;;;11.57;5.28;;;;;;;-139.84;100.00;61778.28;4987510;28;20106;-69
2023/04/05 09:11:15;;;;;;;7.85;4.95;;;;;;;-139.84;100.00;61778.28;4988866;28;20037;-69
2023/04/05 09:13:41;;;;;;;;;;;;;;;-139.84;100.00;61778.28;4988318;28;20037;-70
2023/04/05 09:16:06;;;;;;;7.43;4.97;;;;;;;-139.84;100.00;61778.28;4987636;28;19913;-69
2023/04/05 09:18:32;;;;;;;9.32;4.70;;;;;;;-139.84;100.00;61778.28;4987985;28;20054;-69
2023/04/05 09:21:04;;;;;;;11.30;5.57;;;;;;;-139.84;100.00;61778.28;4983759;28;20096;-69
2023/04/05 09:23:30;;;;;;;10.32;5.43;;;;;;;-139.84;100.00;61778.28;4983106;28;21809;-69
2023/04/05 09:25:56;;;;;;;8.63;5.93;;;;;;;-139.84;100.00;61778.28;4996514;28;20030;-69
2023/04/05 09:28:21;;;;;;;15.18;5.57;;;;;;;-139.84;100.00;61778.28;4986703;28;20073;-69
2023/04/05 09:30:47;;;;;;;10.00;6.00;;;;;;;-139.84;100.00;61778.28;5003741;28;20022;-69
2023/04/05 09:33:18;;;;;;;10.40;6.13;;;;;;;-139.84;100.00;61778.28;4984071;28;20090;-68
2023/04/05 09:35:44;;;;;;;11.13;6.38;;;;;;;-139.84;100.00;61778.28;4984962;28;20033;-67
2023/04/05 09:38:09;;;;;;;11.20;6.37;;;;;;;-139.84;100.00;61778.28;4985869;28;20042;-67
2023/04/05 09:40:44;;;;;;;13.10;7.80;;;;;;;-139.84;100.00;61778.28;4988044;28;20037;-67
2023/04/05 09:43:10;;;;;;;12.73;6.78;;;;;;;-139.84;100.00;61778.28;4987229;28;20022;-67
2023/04/05 09:45:41;;;;;;;14.20;7.68;;;;;;;-139.84;100.00;61778.28;4990321;28;20031;-68
2023/04/05 09:48:07;;;;;;;13.45;7.15;;;;;;;-139.84;100.00;61778.28;4991480;28;20105;-68
2023/04/05 09:50:33;;;;;;;11.27;7.38;;;;;;;-139.84;100.00;61778.28;4990558;28;20034;-68
2023/04/05 09:53:14;;;;;;;13.05;8.43;;;;;;;-139.84;100.00;61778.28;4992347;28;20030;-68
2023/04/05 09:55:39;;;;;;;15.05;8.45;;;;;;;-139.84;100.00;61778.28;4988752;28;20050;-67
2023/04/05 09:58:11;;;;;;;17.00;7.30;;;;;;;-139.84;100.00;61778.28;4986044;28;20571;-68
2023/04/05 10:00:36;;;;;;;14.70;7.28;;;;;;;-139.84;100.00;61778.28;4988875;28;20044;-68
2023/04/05 10:03:02;;;;;;;12.97;8.20;;;;;;;-139.84;100.00;61778.28;4990094;28;20030;-68
2023/04/05 10:05:28;;;;;;;13.63;8.15;;;;;;;-139.84;100.00;61778.28;4991258;28;20026;-68
2023/04/05 10:07:57;;;;;;;19.60;8.20;;;;;;;-139.84;100.00;61778.28;4990947;28;20482;-67
2023/04/05 10:10:24;;;;;;;14.90;8.48;;;;;;;-139.84;100.00;61778.28;4991437;28;20105;-68
2023/04/05 10:12:50;;;;;;;15.65;7.72;;;;;;;-139.84;100.00;61778.28;4989162;28;20030;-67
2023/04/05 10:15:16;;;;;;;14.37;8.27;;;;;;;-139.84;100.00;61778.28;4991234;28;20113;-67
2023/04/05 10:17:42;;;;;;;15.02;8.88;;;;;;;-139.84;100.00;61778.28;4990804;28;20363;-70
2023/04/05 10:20:13;;;;;;;19.83;9.77;;;;;;;-139.84;100.00;61778.28;5005928;28;20514;-68
2023/04/05 10:22:58;;;;;;;13.73;9.10;;;;;;;-139.84;100.00;61778.28;5005168;28;20026;-68
2023/04/05 10:25:45;;;;;;;12.90;7.95;;;;;;;-139.84;100.00;61778.28;4988300;28;20038;-68
2023/04/05 10:28:17;;;;;;;14.15;8.13;;;;;;;-139.84;100.00;61778.28;5006807;28;20030;-69
2023/04/05 10:30:50;;;;;;;14.18;8.02;;;;;;;-139.84;100.00;61778.28;5005295;28;20061;-70
2023/04/05 10:33:32;;;;;;;13.38;7.32;;;;;;;-139.84;100.00;61778.28;4988543;28;20033;-67
2023/04/05 10:36:19;;;;;;;10.98;7.40;;;;;;;-139.84;100.00;61778.28;4986913;28;20088;-67
2023/04/05 10:39:03;;;;;;;16.40;7.88;;;;;;;-139.84;100.00;61778.28;5006901;28;20026;-67
2023/04/05 10:41:34;;;;;;;14.07;8.00;;;;;;;-139.84;100.00;61778.28;5003349;28;20054;-68
2023/04/05 10:44:02;;;;;;;16.10;7.28;;;;;;;-139.84;100.00;61778.28;4990407;28;20030;-66
2023/04/05 10:46:30;;;;;;;14.27;8.40;;;;;;;-139.84;100.00;61778.28;4990638;28;20140;-69
2023/04/05 10:49:07;;;;;;;17.33;8.25;;;;;;;-139.84;100.00;61778.28;4990703;28;20429;-67
2023/04/05 10:51:33;;;;;;;16.85;7.88;;;;;;;-139.84;100.00;61778.28;4989950;28;20149;-69
2023/04/05 10:53:59;;;;;;;15.70;8.80;;;;;;;-139.84;100.00;61778.28;4990241;28;20031;-67
2023/04/05 10:56:26;;;;;;;15.70;8.23;;;;;;;-139.84;100.00;61778.28;4984463;28;20034;-67
2023/04/05 10:58:54;;;;;;;14.00;7.22;;;;;;;-139.84;100.00;61778.28;4991338;28;20034;-67